createdAt,value
2019-03-08T00:00:48.139Z,974.85
2019-03-08T00:01:48.117Z,974.79
2019-03-08T00:02:48.107Z,974.75
2019-03-08T00:03:48.094Z,974.85
2019-03-08T00:04:48.148Z,974.90
2019-03-08T00:05:48.071Z,974.92
2019-03-08T00:06:48.065Z,974.87
2019-03-08T00:07:48.055Z,974.88
2019-03-08T00:08:48.044Z,974.91
2019-03-08T00:09:48.040Z,974.83
2019-03-08T00:10:48.070Z,974.85
2019-03-08T00:11:48.011Z,974.93
2019-03-08T00:12:48.004Z,974.78
2019-03-08T00:13:47.989Z,974.83
2019-03-08T00:14:47.989Z,974.90
2019-03-08T00:15:47.967Z,974.94
2019-03-08T00:16:48.013Z,974.98
2019-03-08T00:17:47.946Z,974.99
2019-03-08T00:18:47.941Z,974.99
2019-03-08T00:19:47.932Z,975.00
2019-03-08T00:20:47.905Z,975.10
2019-03-08T00:21:47.902Z,975.06
2019-03-08T00:22:47.955Z,975.06
2019-03-08T00:23:47.879Z,975.05
2019-03-08T00:24:47.867Z,975.00
2019-03-08T00:25:47.857Z,975.03
2019-03-08T00:26:47.853Z,975.11
2019-03-08T00:27:47.835Z,975.18
2019-03-08T00:28:47.879Z,975.18
2019-03-08T00:29:47.818Z,975.15
2019-03-08T00:30:47.807Z,975.03
2019-03-08T00:31:47.800Z,975.17
2019-03-08T00:32:47.781Z,975.13
2019-03-08T00:33:47.786Z,975.09
2019-03-08T00:34:47.822Z,975.16
2019-03-08T00:35:47.761Z,975.17
2019-03-08T00:36:47.749Z,975.26
2019-03-08T00:37:47.729Z,975.24
2019-03-08T00:38:47.721Z,975.29
2019-03-08T00:39:47.709Z,975.33
2019-03-08T00:40:47.751Z,975.34
2019-03-08T00:41:47.683Z,975.32
2019-03-08T00:42:47.678Z,975.39
2019-03-08T00:43:47.663Z,975.33
2019-03-08T00:44:47.650Z,975.36
2019-03-08T00:45:47.641Z,975.34
2019-03-08T00:46:47.676Z,975.34
2019-03-08T00:47:47.618Z,975.29
2019-03-08T00:48:47.619Z,975.31
2019-03-08T00:49:47.593Z,975.27
2019-03-08T00:50:47.586Z,975.38
2019-03-08T00:51:47.577Z,975.39
2019-03-08T00:52:47.618Z,975.41
2019-03-08T00:53:47.554Z,975.36
2019-03-08T00:54:47.546Z,975.42
2019-03-08T00:55:47.538Z,975.35
2019-03-08T00:56:47.527Z,975.33
2019-03-08T00:57:47.516Z,975.38
2019-03-08T00:58:47.565Z,975.38
2019-03-08T00:59:47.491Z,975.44
2019-03-08T01:00:47.478Z,975.45
2019-03-08T01:01:47.496Z,975.48
2019-03-08T01:02:47.453Z,975.39
2019-03-08T01:03:47.450Z,975.41
2019-03-08T01:04:47.481Z,975.43
2019-03-08T01:05:47.436Z,975.42
2019-03-08T01:06:47.423Z,975.33
2019-03-08T01:07:47.413Z,975.36
2019-03-08T01:08:47.392Z,975.35
2019-03-08T01:09:47.382Z,975.37
2019-03-08T01:10:47.414Z,975.37
2019-03-08T01:11:47.360Z,975.40
2019-03-08T01:12:47.350Z,975.42
2019-03-08T01:13:47.350Z,975.35
2019-03-08T01:14:47.331Z,975.45
2019-03-08T01:15:47.318Z,975.44
2019-03-08T01:16:47.363Z,975.51
2019-03-08T01:17:47.298Z,975.52
2019-03-08T01:18:47.287Z,975.50
2019-03-08T01:19:47.275Z,975.57
2019-03-08T01:20:47.261Z,975.48
2019-03-08T01:21:47.277Z,975.47
2019-03-08T01:22:47.310Z,975.52
2019-03-08T01:23:47.256Z,975.48
2019-03-08T01:24:47.220Z,975.48
2019-03-08T01:25:47.209Z,975.53
2019-03-08T01:26:47.216Z,975.58
2019-03-08T01:27:47.204Z,975.61
2019-03-08T01:28:47.239Z,975.63
2019-03-08T01:29:47.164Z,975.56
2019-03-08T01:30:47.158Z,975.59
2019-03-08T01:31:47.149Z,975.60
2019-03-08T01:32:47.148Z,975.57
2019-03-08T01:33:47.137Z,975.60
2019-03-08T01:34:47.175Z,975.61
2019-03-08T01:35:47.100Z,975.58
2019-03-08T01:36:47.088Z,975.59
2019-03-08T01:37:47.094Z,975.64
2019-03-08T01:38:47.072Z,975.64
2019-03-08T01:39:47.065Z,975.62
2019-03-08T01:40:47.104Z,975.63
2019-03-08T01:41:47.037Z,975.61
2019-03-08T01:42:47.041Z,975.69
2019-03-08T01:43:47.021Z,975.67
2019-03-08T01:44:47.007Z,975.65
2019-03-08T01:45:47.017Z,975.71
2019-03-08T01:46:47.043Z,975.67
2019-03-08T01:47:46.984Z,975.66
2019-03-08T01:48:46.973Z,975.70
2019-03-08T01:49:46.951Z,975.68
2019-03-08T01:50:46.974Z,975.68
2019-03-08T01:51:46.968Z,975.67
2019-03-08T01:52:47.682Z,975.68
2019-03-08T01:53:46.906Z,975.70
2019-03-08T01:54:46.905Z,975.73
2019-03-08T01:55:46.891Z,975.69
2019-03-08T01:56:46.884Z,975.61
2019-03-08T01:57:46.870Z,975.64
2019-03-08T01:58:46.913Z,975.62
2019-03-08T01:59:46.843Z,975.64
2019-03-08T02:00:46.832Z,975.76
2019-03-08T02:01:46.823Z,975.71
2019-03-08T02:02:46.814Z,975.62
2019-03-08T02:03:46.795Z,975.68
2019-03-08T02:04:46.856Z,975.66
2019-03-08T02:05:46.778Z,975.70
2019-03-08T02:06:46.779Z,975.74
2019-03-08T02:07:46.757Z,975.80
2019-03-08T02:08:46.746Z,975.73
2019-03-08T02:09:46.734Z,975.71
2019-03-08T02:10:46.769Z,975.74
2019-03-08T02:11:46.716Z,975.80
2019-03-08T02:12:46.705Z,975.67
2019-03-08T02:13:46.708Z,975.69
2019-03-08T02:14:46.683Z,975.69
2019-03-08T02:15:46.667Z,975.72
2019-03-08T02:16:46.727Z,975.81
2019-03-08T02:17:46.660Z,975.83
2019-03-08T02:18:46.635Z,975.84
2019-03-08T02:19:46.632Z,975.80
2019-03-08T02:20:46.610Z,975.89
2019-03-08T02:21:46.600Z,975.88
2019-03-08T02:22:46.651Z,975.82
2019-03-08T02:23:46.582Z,975.80
2019-03-08T02:24:46.568Z,975.87
2019-03-08T02:25:46.561Z,975.80
2019-03-08T02:26:46.571Z,975.78
2019-03-08T02:27:46.544Z,975.89
2019-03-08T02:28:46.584Z,975.84
2019-03-08T02:29:46.520Z,975.84
2019-03-08T02:30:46.507Z,975.88
2019-03-08T02:31:46.504Z,975.83
2019-03-08T02:32:46.500Z,975.84
2019-03-08T02:33:46.496Z,975.87
2019-03-08T02:34:46.517Z,975.96
2019-03-08T02:35:46.451Z,975.86
2019-03-08T02:36:46.444Z,975.83
2019-03-08T02:37:46.432Z,975.87
2019-03-08T02:38:46.416Z,975.99
2019-03-08T02:39:46.410Z,975.96
2019-03-08T02:40:46.448Z,975.94
2019-03-08T02:41:46.384Z,976.02
2019-03-08T02:42:46.375Z,976.01
2019-03-08T02:43:46.362Z,976.01
2019-03-08T02:44:46.352Z,976.10
2019-03-08T02:45:46.337Z,976.03
2019-03-08T02:46:46.400Z,976.05
2019-03-08T02:47:46.320Z,976.05
2019-03-08T02:48:46.307Z,976.10
2019-03-08T02:49:46.304Z,976.08
2019-03-08T02:50:46.286Z,976.09
2019-03-08T02:51:46.283Z,976.09
2019-03-08T02:52:46.307Z,976.13
2019-03-08T02:53:46.255Z,976.17
2019-03-08T02:54:46.248Z,976.17
2019-03-08T02:55:46.232Z,976.18
2019-03-08T02:56:46.225Z,976.12
2019-03-08T02:57:46.220Z,976.16
2019-03-08T02:58:46.252Z,976.26
2019-03-08T02:59:46.190Z,976.13
2019-03-08T03:00:46.199Z,976.18
2019-03-08T03:01:46.171Z,976.18
2019-03-08T03:02:46.165Z,976.16
2019-03-08T03:03:46.148Z,976.18
2019-03-08T03:04:46.190Z,976.16
2019-03-08T03:05:46.148Z,976.25
2019-03-08T03:06:46.116Z,976.23
2019-03-08T03:07:46.104Z,976.30
2019-03-08T03:08:46.102Z,976.29
2019-03-08T03:09:46.081Z,976.29
2019-03-08T03:10:46.121Z,976.36
2019-03-08T03:11:46.061Z,976.32
2019-03-08T03:12:46.042Z,976.38
2019-03-08T03:13:46.038Z,976.29
2019-03-08T03:14:46.040Z,976.36
2019-03-08T03:15:46.013Z,976.27
2019-03-08T03:16:46.055Z,976.31
2019-03-08T03:17:45.994Z,976.40
2019-03-08T03:18:45.986Z,976.43
2019-03-08T03:19:45.981Z,976.34
2019-03-08T03:20:45.965Z,976.39
2019-03-08T03:21:45.949Z,976.40
2019-03-08T03:22:45.997Z,976.42
2019-03-08T03:23:45.939Z,976.50
2019-03-08T03:24:45.927Z,976.42
2019-03-08T03:25:45.913Z,976.40
2019-03-08T03:26:45.914Z,976.50
2019-03-08T03:27:45.885Z,976.53
2019-03-08T03:28:45.923Z,976.57
2019-03-08T03:29:45.875Z,976.56
2019-03-08T03:30:45.862Z,976.58
2019-03-08T03:31:45.840Z,976.61
2019-03-08T03:32:45.840Z,976.56
2019-03-08T03:33:45.838Z,976.57
2019-03-08T03:34:45.859Z,976.56
2019-03-08T03:35:45.800Z,976.56
2019-03-08T03:36:45.786Z,976.62
2019-03-08T03:37:45.779Z,976.59
2019-03-08T03:38:45.774Z,976.57
2019-03-08T03:39:45.755Z,976.63
2019-03-08T03:40:45.798Z,976.74
2019-03-08T03:41:45.734Z,976.75
2019-03-08T03:42:45.715Z,976.77
2019-03-08T03:43:45.717Z,976.85
2019-03-08T03:44:45.725Z,976.77
2019-03-08T03:45:45.688Z,976.75
2019-03-08T03:46:45.736Z,976.76
2019-03-08T03:47:45.673Z,976.71
2019-03-08T03:48:45.668Z,976.73
2019-03-08T03:49:45.650Z,976.81
2019-03-08T03:50:45.641Z,976.74
2019-03-08T03:51:45.624Z,976.82
2019-03-08T03:52:45.672Z,976.77
2019-03-08T03:53:45.596Z,976.80
2019-03-08T03:54:45.589Z,976.82
2019-03-08T03:55:45.578Z,976.84
2019-03-08T03:56:45.583Z,976.81
2019-03-08T03:57:45.556Z,976.85
2019-03-08T03:58:45.599Z,976.88
2019-03-08T03:59:45.535Z,976.85
2019-03-08T04:00:45.526Z,976.90
2019-03-08T04:01:45.536Z,976.91
2019-03-08T04:02:45.509Z,976.97
2019-03-08T04:03:45.506Z,976.93
2019-03-08T04:04:45.542Z,976.96
2019-03-08T04:05:45.471Z,976.95
2019-03-08T04:06:45.461Z,976.96
2019-03-08T04:07:45.471Z,976.98
2019-03-08T04:08:45.438Z,976.92
2019-03-08T04:09:45.430Z,976.95
2019-03-08T04:10:45.471Z,977.03
2019-03-08T04:11:45.419Z,977.04
2019-03-08T04:12:45.409Z,976.96
2019-03-08T04:13:45.390Z,977.07
2019-03-08T04:14:45.374Z,977.01
2019-03-08T04:15:45.371Z,977.01
2019-03-08T04:16:45.413Z,977.08
2019-03-08T04:17:45.358Z,977.09
2019-03-08T04:18:45.333Z,977.12
2019-03-08T04:19:45.349Z,976.99
2019-03-08T04:20:45.310Z,977.03
2019-03-08T04:21:45.332Z,977.08
2019-03-08T04:22:45.337Z,977.08
2019-03-08T04:23:45.345Z,977.08
2019-03-08T04:24:45.264Z,977.12
2019-03-08T04:25:45.264Z,977.03
2019-03-08T04:26:45.258Z,977.15
2019-03-08T04:27:45.267Z,977.11
2019-03-08T04:28:45.304Z,977.09
2019-03-08T04:29:45.213Z,977.06
2019-03-08T04:30:45.206Z,977.12
2019-03-08T04:31:45.197Z,977.12
2019-03-08T04:32:45.191Z,977.02
2019-03-08T04:33:45.171Z,977.08
2019-03-08T04:34:45.228Z,977.07
2019-03-08T04:35:45.147Z,977.09
2019-03-08T04:36:45.169Z,977.10
2019-03-08T04:37:45.124Z,977.17
2019-03-08T04:38:45.126Z,977.13
2019-03-08T04:39:45.109Z,977.09
2019-03-08T04:40:45.183Z,977.13
2019-03-08T04:41:45.091Z,977.17
2019-03-08T04:42:45.087Z,977.15
2019-03-08T04:43:45.071Z,977.24
2019-03-08T04:44:45.073Z,977.15
2019-03-08T04:45:45.037Z,977.15
2019-03-08T04:46:45.075Z,977.19
2019-03-08T04:47:45.033Z,977.21
2019-03-08T04:48:45.008Z,977.28
2019-03-08T04:49:45.022Z,977.27
2019-03-08T04:50:45.003Z,977.25
2019-03-08T04:51:44.988Z,977.31
2019-03-08T04:52:45.267Z,977.28
2019-03-08T04:53:44.963Z,977.20
2019-03-08T04:54:44.948Z,977.28
2019-03-08T04:55:44.937Z,977.26
2019-03-08T04:56:44.936Z,977.27
2019-03-08T04:57:44.944Z,977.27
2019-03-08T04:58:44.951Z,977.22
2019-03-08T04:59:44.911Z,977.24
2019-03-08T05:00:44.875Z,977.22
2019-03-08T05:01:44.881Z,977.29
2019-03-08T05:02:44.875Z,977.27
2019-03-08T05:03:44.855Z,977.30
2019-03-08T05:04:44.894Z,977.35
2019-03-08T05:05:44.828Z,977.36
2019-03-08T05:06:44.820Z,977.43
2019-03-08T05:07:44.854Z,977.41
2019-03-08T05:08:45.852Z,977.36
2019-03-08T05:09:44.772Z,977.37
2019-03-08T05:10:44.828Z,977.36
2019-03-08T05:11:44.766Z,977.42
2019-03-08T05:12:44.746Z,977.41
2019-03-08T05:13:44.746Z,977.44
2019-03-08T05:14:44.726Z,977.44
2019-03-08T05:15:44.720Z,977.41
2019-03-08T05:16:44.831Z,977.41
2019-03-08T05:17:44.690Z,977.43
2019-03-08T05:18:44.690Z,977.44
2019-03-08T05:19:44.698Z,977.34
2019-03-08T05:20:44.682Z,977.41
2019-03-08T05:21:44.649Z,977.36
2019-03-08T05:22:44.718Z,977.43
2019-03-08T05:23:44.629Z,977.41
2019-03-08T05:24:44.682Z,977.49
2019-03-08T05:25:44.622Z,977.44
2019-03-08T05:26:44.599Z,977.49
2019-03-08T05:27:44.583Z,977.58
2019-03-08T05:28:44.619Z,977.56
2019-03-08T05:29:44.581Z,977.49
2019-03-08T05:30:44.552Z,977.60
2019-03-08T05:31:44.548Z,977.65
2019-03-08T05:32:44.536Z,977.63
2019-03-08T05:33:44.557Z,977.59
2019-03-08T05:34:44.622Z,977.68
2019-03-08T05:35:44.507Z,977.68
2019-03-08T05:37:46.749Z,977.79
2019-03-08T05:38:45.390Z,977.72
2019-03-08T05:39:45.395Z,977.74
2019-03-08T05:40:45.323Z,977.75
2019-03-08T05:41:45.334Z,977.72
2019-03-08T05:42:45.309Z,977.77
2019-03-08T05:43:45.310Z,977.71
2019-03-08T05:44:45.286Z,977.77
2019-03-08T05:45:45.337Z,977.76
2019-03-08T05:46:45.266Z,977.80
2019-03-08T05:47:45.275Z,977.76
2019-03-08T05:48:45.241Z,977.81
2019-03-08T05:49:45.249Z,977.84
2019-03-08T05:50:45.218Z,977.82
2019-03-08T05:51:45.264Z,977.88
2019-03-08T05:52:45.205Z,977.97
2019-03-08T05:53:45.189Z,977.89
2019-03-08T05:54:45.183Z,977.94
2019-03-08T05:55:45.191Z,977.94
2019-03-08T05:56:45.158Z,977.98
2019-03-08T05:57:45.233Z,977.95
2019-03-08T05:58:45.132Z,978.01
2019-03-08T05:59:45.527Z,978.02
2019-03-08T06:00:45.106Z,978.09
2019-03-08T06:01:45.125Z,978.05
2019-03-08T06:02:45.095Z,978.06
2019-03-08T06:03:45.133Z,978.06
2019-03-08T06:04:45.075Z,978.03
2019-03-08T06:05:45.055Z,978.05
2019-03-08T06:06:45.044Z,978.06
2019-03-08T06:07:45.037Z,978.03
2019-03-08T06:08:45.027Z,978.12
2019-03-08T06:09:45.071Z,978.05
2019-03-08T06:10:45.009Z,978.10
2019-03-08T06:11:45.024Z,978.06
2019-03-08T06:12:44.986Z,978.08
2019-03-08T06:13:44.973Z,978.11
2019-03-08T06:14:44.987Z,978.10
2019-03-08T06:15:45.005Z,978.18
2019-03-08T06:16:44.954Z,978.12
2019-03-08T06:17:44.937Z,978.17
2019-03-08T06:18:44.936Z,978.24
2019-03-08T06:19:44.902Z,978.20
2019-03-08T06:20:44.957Z,978.21
2019-03-08T06:21:44.941Z,978.19
2019-03-08T06:22:44.906Z,978.23
2019-03-08T06:23:44.864Z,978.24
2019-03-08T06:24:44.875Z,978.29
2019-03-08T06:25:44.842Z,978.25
2019-03-08T06:26:44.859Z,978.28
2019-03-08T06:27:44.873Z,978.30
2019-03-08T06:28:44.807Z,978.38
2019-03-08T06:29:44.798Z,978.36
2019-03-08T06:30:44.787Z,978.41
2019-03-08T06:31:44.779Z,978.36
2019-03-08T06:32:44.777Z,978.46
2019-03-08T06:33:44.820Z,978.39
2019-03-08T06:34:44.745Z,978.36
2019-03-08T06:35:44.755Z,978.37
2019-03-08T06:36:44.739Z,978.44
2019-03-08T06:37:44.738Z,978.46
2019-03-08T06:38:44.704Z,978.45
2019-03-08T06:39:44.765Z,978.47
2019-03-08T06:40:44.683Z,978.48
2019-03-08T06:41:44.700Z,978.48
2019-03-08T06:42:44.659Z,978.45
2019-03-08T06:43:44.671Z,978.48
2019-03-08T06:44:44.691Z,978.48
2019-03-08T06:45:44.711Z,978.44
2019-03-08T06:46:44.615Z,978.51
2019-03-08T06:47:44.614Z,978.59
2019-03-08T06:48:44.598Z,978.56
2019-03-08T06:49:44.586Z,978.43
2019-03-08T06:50:44.573Z,978.51
2019-03-08T06:51:44.628Z,978.58
2019-03-08T06:52:44.556Z,978.50
2019-03-08T06:53:44.563Z,978.47
2019-03-08T06:54:44.550Z,978.57
2019-03-08T06:55:44.533Z,978.51
2019-03-08T06:56:44.511Z,978.53
2019-03-08T06:57:44.573Z,978.50
2019-03-08T06:58:44.483Z,978.58
2019-03-08T06:59:44.479Z,978.66
2019-03-08T07:00:44.459Z,978.73
2019-03-08T07:01:44.455Z,978.62
2019-03-08T07:02:44.442Z,978.66
2019-03-08T07:03:44.485Z,978.67
2019-03-08T07:04:44.422Z,978.66
2019-03-08T07:05:44.414Z,978.64
2019-03-08T07:06:44.402Z,978.71
2019-03-08T07:07:44.399Z,978.78
2019-03-08T07:08:44.382Z,978.76
2019-03-08T07:09:44.421Z,978.84
2019-03-08T07:10:44.372Z,978.88
2019-03-08T07:11:44.360Z,978.86
2019-03-08T07:12:44.338Z,978.90
2019-03-08T07:13:44.324Z,978.93
2019-03-08T07:14:44.308Z,979.05
2019-03-08T07:15:44.347Z,979.02
2019-03-08T07:16:44.313Z,979.05
2019-03-08T07:17:44.280Z,979.00
2019-03-08T07:18:44.294Z,979.04
2019-03-08T07:19:44.260Z,979.09
2019-03-08T07:20:44.280Z,979.11
2019-03-08T07:21:44.288Z,979.09
2019-03-08T07:22:44.250Z,979.11
2019-03-08T07:23:44.217Z,979.17
2019-03-08T07:24:44.218Z,979.31
2019-03-08T07:25:51.192Z,979.16
2019-03-08T07:26:45.237Z,979.28
2019-03-08T07:27:44.180Z,979.21
2019-03-08T07:28:44.179Z,979.20
2019-03-08T07:29:44.146Z,979.23
2019-03-08T07:30:44.139Z,979.24
2019-03-08T07:31:44.133Z,979.23
2019-03-08T07:32:44.182Z,979.26
2019-03-08T07:33:52.701Z,979.36
2019-03-08T07:34:45.090Z,979.37
2019-03-08T07:35:44.077Z,979.37
2019-03-08T07:36:44.077Z,979.41
2019-03-08T07:37:44.058Z,979.47
2019-03-08T07:38:44.133Z,979.43
2019-03-08T07:39:44.033Z,979.46
2019-03-08T07:40:44.028Z,979.56
2019-03-08T07:41:44.017Z,979.52
2019-03-08T07:42:45.105Z,979.50
2019-03-08T07:43:44.007Z,979.49
2019-03-08T07:44:44.042Z,979.56
2019-03-08T07:45:44.366Z,979.63
2019-03-08T07:46:43.968Z,979.58
2019-03-08T07:47:43.949Z,979.64
2019-03-08T07:48:43.949Z,979.62
2019-03-08T07:49:43.930Z,979.64
2019-03-08T07:50:43.968Z,979.66
2019-03-08T07:51:43.913Z,979.63
2019-03-08T07:52:43.895Z,979.72
2019-03-08T07:53:43.887Z,979.72
2019-03-08T07:54:52.464Z,979.82
2019-03-08T07:55:46.424Z,979.79
2019-03-08T07:56:43.855Z,979.78
2019-03-08T07:57:43.846Z,979.85
2019-03-08T07:58:43.829Z,979.84
2019-03-08T07:59:53.188Z,979.90
2019-03-08T08:00:44.809Z,979.90
2019-03-08T08:01:43.855Z,979.98
2019-03-08T08:02:43.787Z,979.91
2019-03-08T08:03:43.786Z,979.96
2019-03-08T08:04:43.773Z,979.96
2019-03-08T08:05:43.761Z,980.01
2019-03-08T08:06:43.749Z,979.98
2019-03-08T08:07:43.904Z,980.03
2019-03-08T08:08:51.375Z,980.00
2019-03-08T08:09:44.713Z,980.08
2019-03-08T08:10:43.701Z,980.04
2019-03-08T08:11:43.690Z,980.04
2019-03-08T08:12:43.678Z,980.09
2019-03-08T08:13:43.724Z,980.08
2019-03-08T08:14:43.655Z,980.14
2019-03-08T08:15:45.454Z,980.15
2019-03-08T08:16:43.643Z,980.20
2019-03-08T08:17:43.630Z,980.12
2019-03-08T08:18:43.611Z,980.21
2019-03-08T08:19:43.649Z,980.18
2019-03-08T08:20:43.595Z,980.24
2019-03-08T08:21:43.582Z,980.25
2019-03-08T08:22:43.566Z,980.22
2019-03-08T08:23:43.556Z,980.28
2019-03-08T08:24:43.547Z,980.28
2019-03-08T08:25:43.588Z,980.28
2019-03-08T08:26:43.531Z,980.31
2019-03-08T08:27:43.518Z,980.35
2019-03-08T08:28:49.965Z,980.42
2019-03-08T08:29:44.501Z,980.37
2019-03-08T08:30:43.489Z,980.37
2019-03-08T08:31:43.537Z,980.43
2019-03-08T08:32:43.462Z,980.41
2019-03-08T08:33:43.456Z,980.45
2019-03-08T08:34:43.443Z,980.44
2019-03-08T08:35:43.438Z,980.50
2019-03-08T08:36:43.417Z,980.52
2019-03-08T08:37:43.459Z,980.57
2019-03-08T08:38:43.393Z,980.49
2019-03-08T08:39:43.384Z,980.49
2019-03-08T08:40:43.376Z,980.48
2019-03-08T08:41:43.367Z,980.50
2019-03-08T08:42:43.355Z,980.62
2019-03-08T08:43:43.400Z,980.62
2019-03-08T08:44:43.328Z,980.62
2019-03-08T08:45:43.319Z,980.59
2019-03-08T08:46:43.309Z,980.57
2019-03-08T08:47:43.296Z,980.68
2019-03-08T08:48:43.286Z,980.68
2019-03-08T08:49:43.325Z,980.68
2019-03-08T08:50:43.266Z,980.70
2019-03-08T08:51:43.254Z,980.71
2019-03-08T08:52:43.260Z,980.74
2019-03-08T08:53:43.238Z,980.70
2019-03-08T08:54:43.219Z,980.69
2019-03-08T08:55:43.789Z,980.68
2019-03-08T08:56:43.202Z,980.70
2019-03-08T08:57:43.199Z,980.67
2019-03-08T08:58:43.182Z,980.66
2019-03-08T08:59:43.186Z,980.68
2019-03-08T09:00:43.151Z,980.79
2019-03-08T09:01:43.189Z,980.78
2019-03-08T09:02:43.135Z,980.79
2019-03-08T09:03:43.119Z,980.69
2019-03-08T09:04:43.116Z,980.86
2019-03-08T09:05:43.100Z,980.87
2019-03-08T09:06:43.087Z,980.86
2019-03-08T09:07:43.136Z,980.87
2019-03-08T09:08:43.068Z,980.82
2019-03-08T09:09:43.056Z,980.92
2019-03-08T09:10:43.042Z,980.91
2019-03-08T09:11:48.423Z,980.86
2019-03-08T09:12:44.083Z,980.86
2019-03-08T09:13:43.011Z,980.87
2019-03-08T09:14:43.003Z,980.91
2019-03-08T09:15:42.988Z,980.97
2019-03-08T09:16:42.978Z,980.95
2019-03-08T09:17:42.965Z,980.96
2019-03-08T09:18:43.005Z,980.89
2019-03-08T09:19:42.944Z,980.94
2019-03-08T09:20:42.952Z,980.98
2019-03-08T09:21:42.920Z,981.10
2019-03-08T09:22:42.924Z,981.02
2019-03-08T09:23:42.895Z,981.06
2019-03-08T09:24:42.940Z,981.07
2019-03-08T09:25:42.871Z,981.15
2019-03-08T09:26:42.867Z,981.02
2019-03-08T09:27:42.849Z,981.04
2019-03-08T09:28:42.845Z,981.09
2019-03-08T09:29:42.833Z,981.10
2019-03-08T09:30:42.868Z,981.09
2019-03-08T09:31:42.808Z,981.15
2019-03-08T09:32:42.797Z,981.12
2019-03-08T09:33:42.788Z,981.10
2019-03-08T09:34:42.774Z,981.12
2019-03-08T09:35:42.766Z,981.12
2019-03-08T09:36:42.803Z,981.12
2019-03-08T09:37:42.752Z,981.15
2019-03-08T09:38:42.733Z,981.14
2019-03-08T09:39:42.726Z,981.13
2019-03-08T09:40:42.714Z,981.21
2019-03-08T09:41:42.718Z,981.22
2019-03-08T09:42:42.737Z,981.23
2019-03-08T09:43:42.676Z,981.20
2019-03-08T09:44:42.667Z,981.28
2019-03-08T09:45:42.660Z,981.33
2019-03-08T09:46:42.644Z,981.19
2019-03-08T09:47:42.637Z,981.25
2019-03-08T09:48:48.690Z,981.26
2019-03-08T09:49:43.616Z,981.23
2019-03-08T09:50:42.603Z,981.15
2019-03-08T09:51:42.592Z,981.14
2019-03-08T09:52:42.584Z,981.18
2019-03-08T09:53:42.564Z,981.27
2019-03-08T09:54:42.606Z,981.30
2019-03-08T09:55:42.545Z,981.27
2019-03-08T09:56:42.535Z,981.34
2019-03-08T09:57:42.522Z,981.28
2019-03-08T09:58:42.516Z,981.25
2019-03-08T09:59:42.501Z,981.20
2019-03-08T10:00:42.564Z,981.28
2019-03-08T10:01:42.481Z,981.25
2019-03-08T10:02:42.474Z,981.29
2019-03-08T10:03:46.272Z,981.32
2019-03-08T10:04:42.449Z,981.32
2019-03-08T10:05:42.439Z,981.33
2019-03-08T10:06:42.485Z,981.30
2019-03-08T10:07:42.414Z,981.39
2019-03-08T10:08:42.404Z,981.38
2019-03-08T10:09:42.391Z,981.35
2019-03-08T10:10:42.381Z,981.38
2019-03-08T10:11:42.375Z,981.40
2019-03-08T10:12:42.411Z,981.42
2019-03-08T10:13:42.353Z,981.48
2019-03-08T10:14:42.337Z,981.46
2019-03-08T10:15:42.329Z,981.40
2019-03-08T10:16:42.318Z,981.49
2019-03-08T10:17:42.307Z,981.48
2019-03-08T10:18:42.343Z,981.52
2019-03-08T10:19:42.289Z,981.47
2019-03-08T10:20:42.284Z,981.53
2019-03-08T10:21:42.264Z,981.43
2019-03-08T10:22:42.257Z,981.43
2019-03-08T10:23:42.241Z,981.45
2019-03-08T10:24:42.308Z,981.49
2019-03-08T10:25:42.225Z,981.49
2019-03-08T10:26:42.222Z,981.58
2019-03-08T10:27:42.200Z,981.56
2019-03-08T10:28:42.189Z,981.62
2019-03-08T10:29:42.177Z,981.55
2019-03-08T10:30:42.222Z,981.60
2019-03-08T10:31:42.158Z,981.62
2019-03-08T10:32:42.146Z,981.61
2019-03-08T10:33:46.569Z,981.63
2019-03-08T10:34:42.123Z,981.63
2019-03-08T10:35:42.113Z,981.65
2019-03-08T10:36:42.153Z,981.69
2019-03-08T10:37:42.089Z,981.66
2019-03-08T10:38:42.083Z,981.68
2019-03-08T10:39:42.073Z,981.65
2019-03-08T10:40:42.057Z,981.72
2019-03-08T10:41:42.041Z,981.67
2019-03-08T10:42:42.089Z,981.69
2019-03-08T10:43:42.025Z,981.68
2019-03-08T10:44:42.015Z,981.62
2019-03-08T10:45:42.002Z,981.69
2019-03-08T10:46:42.009Z,981.74
2019-03-08T10:47:42.605Z,981.71
2019-03-08T10:48:42.019Z,981.72
2019-03-08T10:49:41.960Z,981.80
2019-03-08T10:50:41.946Z,981.72
2019-03-08T10:51:41.938Z,981.69
2019-03-08T10:52:43.619Z,981.70
2019-03-08T10:53:43.365Z,981.74
2019-03-08T10:54:44.558Z,981.83
2019-03-08T10:55:43.195Z,981.80
2019-03-08T10:56:43.122Z,981.80
2019-03-08T10:57:42.320Z,981.84
2019-03-08T10:58:41.859Z,981.87
2019-03-08T10:59:41.865Z,981.86
2019-03-08T11:00:41.894Z,981.79
2019-03-08T11:01:41.827Z,981.75
2019-03-08T11:02:41.818Z,981.80
2019-03-08T11:03:41.806Z,981.89
2019-03-08T11:04:41.797Z,981.75
2019-03-08T11:05:41.778Z,981.85
2019-03-08T11:06:41.818Z,981.78
2019-03-08T11:07:41.772Z,981.88
2019-03-08T11:08:41.751Z,981.87
2019-03-08T11:09:41.744Z,981.87
2019-03-08T11:10:41.721Z,981.86
2019-03-08T11:11:41.714Z,981.86
2019-03-08T11:12:41.757Z,981.92
2019-03-08T11:13:43.442Z,981.83
2019-03-08T11:14:41.684Z,981.97
2019-03-08T11:15:41.679Z,981.93
2019-03-08T11:16:43.385Z,981.95
2019-03-08T11:17:50.347Z,981.95
2019-03-08T11:18:42.689Z,981.94
2019-03-08T11:19:41.632Z,981.98
2019-03-08T11:20:41.632Z,981.94
2019-03-08T11:21:41.608Z,981.95
2019-03-08T11:22:41.601Z,982.00
2019-03-08T11:23:41.599Z,981.93
2019-03-08T11:24:41.626Z,981.92
2019-03-08T11:25:41.560Z,981.91
2019-03-08T11:26:41.551Z,981.89
2019-03-08T11:27:41.550Z,981.94
2019-03-08T11:28:41.528Z,981.97
2019-03-08T11:29:41.522Z,981.85
2019-03-08T11:30:41.563Z,981.89
2019-03-08T11:31:41.522Z,981.92
2019-03-08T11:32:41.488Z,981.91
2019-03-08T11:33:41.472Z,981.92
2019-03-08T11:34:41.462Z,981.92
2019-03-08T11:35:41.450Z,981.89
2019-03-08T11:36:41.525Z,981.98
2019-03-08T11:38:48.462Z,981.93
2019-03-08T11:39:41.405Z,982.03
2019-03-08T11:40:41.396Z,981.91
2019-03-08T11:41:41.390Z,981.94
2019-03-08T11:42:41.453Z,982.02
2019-03-08T11:43:41.404Z,981.95
2019-03-08T11:44:41.353Z,981.93
2019-03-08T11:45:41.341Z,981.93
2019-03-08T11:46:41.398Z,981.84
2019-03-08T11:47:41.317Z,981.91
2019-03-08T11:48:41.410Z,981.82
2019-03-08T11:49:42.549Z,981.80
2019-03-08T11:50:41.337Z,981.87
2019-03-08T11:51:41.286Z,981.74
2019-03-08T11:52:41.289Z,981.78
2019-03-08T11:53:41.253Z,981.82
2019-03-08T11:54:41.343Z,981.78
2019-03-08T11:55:41.230Z,981.67
2019-03-08T11:56:41.235Z,981.68
2019-03-08T11:57:41.214Z,981.67
2019-03-08T11:58:41.199Z,981.74
2019-03-08T11:59:41.192Z,981.76
2019-03-08T12:00:41.398Z,981.65
2019-03-08T12:01:41.165Z,981.80
2019-03-08T12:02:41.158Z,981.89
2019-03-08T12:03:41.148Z,981.73
2019-03-08T12:04:41.132Z,981.76
2019-03-08T12:05:41.135Z,981.74
2019-03-08T12:06:41.162Z,981.72
2019-03-08T12:07:41.107Z,981.70
2019-03-08T12:08:41.122Z,981.86
2019-03-08T12:09:41.106Z,981.82
2019-03-08T12:10:41.064Z,981.81
2019-03-08T12:11:41.058Z,981.74
2019-03-08T12:12:41.109Z,981.72
2019-03-08T12:13:41.040Z,981.74
2019-03-08T12:14:41.031Z,981.56
2019-03-08T12:15:41.016Z,981.80
2019-03-08T12:16:41.015Z,981.68
2019-03-08T12:17:41.006Z,981.69
2019-03-08T12:18:41.064Z,981.74
2019-03-08T12:19:40.997Z,981.71
2019-03-08T12:20:40.958Z,981.72
2019-03-08T12:21:40.951Z,981.70
2019-03-08T12:22:40.953Z,981.66
2019-03-08T12:23:40.925Z,981.65
2019-03-08T12:24:40.971Z,981.74
2019-03-08T12:25:41.076Z,981.71
2019-03-08T12:26:40.896Z,981.78
2019-03-08T12:27:40.877Z,981.65
2019-03-08T12:28:40.872Z,981.69
2019-03-08T12:29:40.910Z,981.65
2019-03-08T12:30:40.932Z,981.65